createdAt,value
2023-06-21T00:00:19.438Z,245.11
2023-06-21T00:01:19.504Z,243.91
2023-06-21T00:02:19.563Z,244.41
2023-06-21T00:03:19.626Z,244.27
2023-06-21T00:04:19.537Z,243.91
2023-06-21T00:05:19.585Z,243.60
2023-06-21T00:06:19.624Z,242.69
2023-06-21T00:07:19.684Z,243.19
2023-06-21T00:08:19.676Z,244.76
2023-06-21T00:09:19.734Z,244.81
2023-06-21T00:10:19.760Z,244.01
2023-06-21T00:11:19.784Z,244.01
2023-06-21T00:12:19.826Z,243.65
2023-06-21T00:13:19.792Z,243.61
2023-06-21T00:14:19.830Z,244.24
2023-06-21T00:15:19.835Z,246.02
2023-06-21T00:16:19.854Z,243.94
2023-06-21T00:17:19.892Z,244.76
2023-06-21T00:18:19.893Z,243.44
2023-06-21T00:19:19.864Z,244.85
2023-06-21T00:20:19.898Z,244.81
2023-06-21T00:21:19.899Z,245.14
2023-06-21T00:22:19.905Z,243.09
2023-06-21T00:23:19.906Z,243.46
2023-06-21T00:24:19.949Z,246.02
2023-06-21T00:25:19.930Z,243.77
2023-06-21T00:26:19.946Z,245.25
2023-06-21T00:27:19.966Z,245.15
2023-06-21T00:28:19.952Z,244.12
2023-06-21T00:29:19.994Z,245.00
2023-06-21T00:30:20.018Z,244.95
2023-06-21T00:31:20.015Z,245.86
2023-06-21T00:32:20.063Z,244.71
2023-06-21T00:33:20.004Z,246.17
2023-06-21T00:34:19.976Z,244.57
2023-06-21T00:35:20.000Z,245.46
2023-06-21T00:36:19.993Z,245.66
2023-06-21T00:37:20.000Z,245.36
2023-06-21T00:38:19.963Z,245.31
2023-06-21T00:39:19.965Z,246.26
2023-06-21T00:40:19.968Z,244.84
2023-06-21T00:41:19.967Z,245.74
2023-06-21T00:42:19.996Z,246.59
2023-06-21T00:43:20.022Z,245.77
2023-06-21T00:44:20.050Z,244.93
2023-06-21T00:45:20.003Z,246.32
2023-06-21T00:46:20.065Z,246.88
2023-06-21T00:47:20.027Z,245.64
2023-06-21T00:48:20.019Z,245.55
2023-06-21T00:49:20.034Z,245.65
2023-06-21T00:50:19.944Z,245.85
2023-06-21T00:51:19.952Z,246.18
2023-06-21T00:52:19.908Z,246.14
2023-06-21T00:53:19.852Z,247.29
2023-06-21T00:54:19.820Z,246.27
2023-06-21T00:55:19.798Z,246.81
2023-06-21T00:56:19.766Z,248.29
2023-06-21T00:57:19.776Z,247.41
2023-06-21T00:58:19.690Z,246.50
2023-06-21T00:59:19.694Z,246.74
2023-06-21T01:00:19.707Z,247.96
2023-06-21T01:01:19.784Z,246.16
2023-06-21T01:02:19.720Z,245.17
2023-06-21T01:03:19.737Z,246.68
2023-06-21T01:04:19.766Z,246.84
2023-06-21T01:05:19.890Z,246.17
2023-06-21T01:06:19.845Z,246.44
2023-06-21T01:07:19.902Z,247.19
2023-06-21T01:08:19.977Z,247.17
2023-06-21T01:09:19.969Z,246.03
2023-06-21T01:10:20.018Z,246.77
2023-06-21T01:11:20.079Z,246.42
2023-06-21T01:12:20.157Z,248.03
2023-06-21T01:13:20.162Z,246.59
2023-06-21T01:14:20.185Z,247.39
2023-06-21T01:15:20.231Z,246.62
2023-06-21T01:16:20.298Z,246.48
2023-06-21T01:17:20.355Z,247.99
2023-06-21T01:18:20.360Z,246.91
2023-06-21T01:19:20.410Z,246.80
2023-06-21T01:20:20.399Z,247.06
2023-06-21T01:21:20.425Z,246.26
2023-06-21T01:22:20.444Z,245.73
2023-06-21T01:23:20.476Z,247.53
2023-06-21T01:24:20.523Z,247.10
2023-06-21T01:25:20.577Z,247.27
2023-06-21T01:26:20.602Z,248.28
2023-06-21T01:27:20.651Z,246.43
2023-06-21T01:28:20.683Z,247.91
2023-06-21T01:29:20.732Z,248.36
2023-06-21T01:30:20.761Z,247.03
2023-06-21T01:31:20.829Z,247.21
2023-06-21T01:32:20.833Z,247.61
2023-06-21T01:33:20.943Z,246.16
2023-06-21T01:34:20.933Z,247.89
2023-06-21T01:35:20.976Z,247.69
2023-06-21T01:36:21.021Z,247.83
2023-06-21T01:37:21.047Z,248.08
2023-06-21T01:38:21.073Z,247.76
2023-06-21T01:39:21.130Z,249.20
2023-06-21T01:40:21.188Z,247.77
2023-06-21T01:41:21.189Z,248.11
2023-06-21T01:42:21.228Z,248.60
2023-06-21T01:43:21.236Z,247.81
2023-06-21T01:44:21.227Z,248.06
2023-06-21T01:45:21.245Z,248.02
2023-06-21T01:46:21.355Z,247.27
2023-06-21T01:47:21.295Z,249.57
2023-06-21T01:48:21.272Z,248.51
2023-06-21T01:49:21.342Z,245.85
2023-06-21T01:50:21.285Z,248.38
2023-06-21T01:51:21.267Z,248.76
2023-06-21T01:52:21.728Z,247.08
2023-06-21T01:53:21.272Z,248.34
2023-06-21T01:54:21.277Z,247.24
2023-06-21T01:55:21.291Z,250.00
2023-06-21T01:56:21.300Z,246.83
2023-06-21T01:57:21.364Z,246.71
2023-06-21T01:58:21.348Z,248.66
2023-06-21T01:59:21.394Z,248.42
2023-06-21T02:00:21.406Z,247.90
2023-06-21T02:01:21.392Z,247.26
2023-06-21T02:02:21.405Z,248.62
2023-06-21T02:03:21.363Z,246.78
2023-06-21T02:04:21.363Z,245.97
2023-06-21T02:05:21.403Z,249.71
2023-06-21T02:06:21.396Z,248.65
2023-06-21T02:07:21.404Z,247.89
2023-06-21T02:08:21.397Z,246.12
2023-06-21T02:09:21.419Z,246.87
2023-06-21T02:10:21.429Z,247.87
2023-06-21T02:11:21.441Z,246.03
2023-06-21T02:12:21.483Z,247.16
2023-06-21T02:13:21.463Z,245.87
2023-06-21T02:14:21.539Z,246.32
2023-06-21T02:15:21.514Z,246.63
2023-06-21T02:16:21.561Z,245.70
2023-06-21T02:17:21.603Z,245.53
2023-06-21T02:18:21.612Z,245.80
2023-06-21T02:19:21.651Z,246.54
2023-06-21T02:20:21.663Z,246.01
2023-06-21T02:21:21.675Z,246.17
2023-06-21T02:22:21.688Z,245.29
2023-06-21T02:23:21.667Z,245.40
2023-06-21T02:24:21.678Z,245.48
2023-06-21T02:25:21.608Z,245.57
2023-06-21T02:26:21.626Z,246.10
2023-06-21T02:27:23.569Z,247.13
2023-06-21T02:28:21.553Z,247.20
2023-06-21T02:29:21.514Z,249.44
2023-06-21T02:30:21.470Z,249.32
2023-06-21T02:31:21.435Z,246.29
2023-06-21T02:32:21.446Z,246.08
2023-06-21T02:33:21.454Z,246.93
2023-06-21T02:34:21.401Z,245.50
2023-06-21T02:35:21.338Z,245.98
2023-06-21T02:36:21.326Z,246.66
2023-06-21T02:37:21.328Z,245.31
2023-06-21T02:38:21.345Z,247.44
2023-06-21T02:39:21.383Z,246.54
2023-06-21T02:40:21.405Z,245.34
2023-06-21T02:41:21.379Z,245.71
2023-06-21T02:42:21.406Z,246.29
2023-06-21T02:43:21.429Z,243.98
2023-06-21T02:44:21.389Z,244.16
2023-06-21T02:45:21.398Z,241.17
2023-06-21T02:46:21.376Z,238.16
2023-06-21T02:47:21.394Z,230.27
2023-06-21T02:48:21.342Z,219.86
2023-06-21T02:49:21.312Z,213.66
2023-06-21T02:50:21.371Z,193.05
2023-06-21T02:51:21.288Z,171.08
2023-06-21T02:52:21.301Z,151.22
2023-06-21T02:53:21.247Z,136.66
2023-06-21T02:54:21.265Z,124.02
2023-06-21T02:55:21.228Z,109.75
2023-06-21T02:56:21.248Z,98.82
2023-06-21T02:57:21.225Z,83.85
2023-06-21T02:58:21.213Z,72.47
2023-06-21T02:59:21.209Z,64.79
2023-06-21T03:00:21.196Z,56.82
2023-06-21T03:01:21.260Z,48.99
2023-06-21T03:02:21.194Z,39.93
2023-06-21T03:03:21.279Z,32.86
2023-06-21T03:04:21.197Z,26.53
2023-06-21T03:05:21.212Z,25.00
2023-06-21T03:06:21.201Z,25.00
2023-06-21T03:07:21.220Z,25.00
2023-06-21T03:08:21.221Z,25.28
2023-06-21T03:09:21.220Z,26.03
2023-06-21T03:10:21.228Z,25.16
2023-06-21T03:11:21.229Z,25.00
2023-06-21T03:12:21.257Z,25.00
2023-06-21T03:13:21.259Z,24.67
2023-06-21T03:14:21.260Z,24.55
2023-06-21T03:15:21.267Z,25.00
2023-06-21T03:16:21.285Z,25.00
2023-06-21T03:17:21.321Z,25.00
2023-06-21T03:18:21.307Z,25.00
2023-06-21T03:19:21.326Z,25.00
2023-06-21T03:20:21.341Z,26.63
2023-06-21T03:21:21.372Z,25.93
2023-06-21T03:22:22.724Z,25.00
2023-06-21T03:23:21.346Z,25.06
2023-06-21T03:24:21.354Z,23.78
2023-06-21T03:25:21.310Z,23.87
2023-06-21T03:26:21.308Z,20.21
2023-06-21T03:27:21.283Z,16.92
2023-06-21T03:28:21.269Z,25.45
2023-06-21T03:29:21.261Z,26.37
2023-06-21T03:30:21.218Z,25.19
2023-06-21T03:31:21.296Z,26.99
2023-06-21T03:32:21.273Z,25.07
2023-06-21T03:33:21.187Z,27.24
2023-06-21T03:34:21.156Z,26.51
2023-06-21T03:35:21.138Z,25.93
2023-06-21T03:36:21.127Z,25.44
2023-06-21T03:37:21.126Z,25.49
2023-06-21T03:38:21.102Z,25.71
2023-06-21T03:39:21.074Z,25.62
2023-06-21T03:40:21.058Z,27.19
2023-06-21T03:41:21.065Z,25.51
2023-06-21T03:42:21.080Z,25.59
2023-06-21T03:43:22.010Z,25.55
2023-06-21T03:44:21.503Z,25.56
2023-06-21T03:45:21.488Z,26.18
2023-06-21T03:46:21.034Z,26.63
2023-06-21T03:47:21.082Z,25.98
2023-06-21T03:48:20.987Z,26.86
2023-06-21T03:49:21.077Z,26.89
2023-06-21T03:50:20.964Z,27.11
2023-06-21T03:51:21.290Z,26.91
2023-06-21T03:52:21.179Z,28.42
2023-06-21T03:53:20.974Z,30.01
2023-06-21T03:54:20.917Z,30.03
2023-06-21T03:55:21.719Z,30.53
2023-06-21T03:56:20.919Z,28.66
2023-06-21T03:57:21.116Z,29.23
2023-06-21T03:58:21.056Z,30.32
2023-06-21T03:59:21.077Z,31.28
2023-06-21T04:00:21.142Z,31.65
2023-06-21T04:01:26.238Z,32.19
2023-06-21T04:02:21.082Z,32.24
2023-06-21T04:03:22.429Z,32.25
2023-06-21T04:04:21.036Z,30.13
2023-06-21T04:05:21.054Z,32.14
2023-06-21T04:06:21.056Z,31.01
2023-06-21T04:07:21.820Z,30.18
2023-06-21T04:08:21.118Z,30.47
2023-06-21T04:09:21.158Z,29.37
2023-06-21T04:10:21.194Z,28.33
2023-06-21T04:11:21.221Z,28.16
2023-06-21T04:12:21.266Z,28.29
2023-06-21T04:14:40.450Z,25.00
2023-06-21T04:15:41.102Z,25.00
2023-06-21T04:16:40.333Z,25.00
2023-06-21T04:17:41.306Z,25.00
2023-06-21T04:18:40.269Z,25.00
2023-06-21T04:19:40.243Z,56.58
2023-06-21T04:20:40.250Z,87.73
2023-06-21T04:21:41.103Z,75.49
2023-06-21T04:22:40.141Z,52.95
2023-06-21T04:23:40.108Z,38.94
2023-06-21T04:24:40.134Z,25.27
2023-06-21T04:25:40.588Z,28.02
2023-06-21T04:26:40.045Z,25.00
2023-06-21T04:27:40.033Z,28.04
2023-06-21T04:28:39.947Z,28.03
2023-06-21T04:29:39.942Z,25.00
2023-06-21T04:30:40.021Z,28.42
2023-06-21T04:31:40.001Z,32.52
2023-06-21T04:32:40.100Z,23.92
2023-06-21T04:33:40.050Z,24.85
2023-06-21T04:34:40.051Z,25.30
2023-06-21T04:35:40.061Z,34.09
2023-06-21T04:36:41.128Z,29.36
2023-06-21T04:37:40.138Z,30.10
2023-06-21T04:38:40.177Z,30.30
2023-06-21T04:39:40.167Z,44.84
2023-06-21T04:40:40.425Z,74.30
2023-06-21T04:41:41.122Z,67.23
2023-06-21T04:42:40.369Z,59.26
2023-06-21T04:43:40.270Z,62.68
2023-06-21T04:44:40.308Z,61.80
2023-06-21T04:45:40.398Z,85.98
2023-06-21T04:46:41.094Z,84.36
2023-06-21T04:47:40.641Z,76.96
2023-06-21T04:48:40.459Z,57.76
2023-06-21T04:49:40.490Z,62.95
2023-06-21T04:50:40.623Z,51.93
2023-06-21T04:51:40.489Z,52.31
2023-06-21T04:52:40.476Z,49.88
2023-06-21T04:53:40.442Z,47.41
2023-06-21T04:54:40.395Z,51.93
2023-06-21T04:55:40.363Z,52.17
2023-06-21T04:56:40.368Z,48.34
2023-06-21T04:57:40.339Z,47.44
2023-06-21T04:58:40.301Z,34.18
2023-06-21T04:59:40.327Z,31.05
2023-06-21T05:00:40.394Z,29.27
2023-06-21T05:01:40.447Z,29.39
2023-06-21T05:02:40.555Z,24.99
2023-06-21T05:03:40.502Z,27.70
2023-06-21T05:04:40.544Z,35.04
2023-06-21T05:05:40.582Z,33.31
2023-06-21T05:06:40.613Z,43.88
2023-06-21T05:07:40.797Z,50.17
2023-06-21T05:08:40.732Z,52.86
2023-06-21T05:09:40.795Z,60.67
2023-06-21T05:10:40.798Z,74.64
2023-06-21T05:11:40.823Z,75.36
2023-06-21T05:12:40.862Z,75.01
2023-06-21T05:13:40.943Z,79.19
2023-06-21T05:14:40.940Z,94.61
2023-06-21T05:15:41.004Z,94.47
2023-06-21T05:16:41.046Z,104.89
2023-06-21T05:17:41.150Z,105.42
2023-06-21T05:18:41.152Z,112.29
2023-06-21T05:19:41.219Z,114.71
2023-06-21T05:20:41.201Z,115.34
2023-06-21T05:21:41.226Z,118.30
2023-06-21T05:22:41.301Z,127.38
2023-06-21T05:23:41.295Z,126.20
2023-06-21T05:24:41.468Z,123.16
2023-06-21T05:25:41.362Z,128.91
2023-06-21T05:26:41.328Z,129.17
2023-06-21T05:27:41.294Z,131.49
2023-06-21T05:28:41.259Z,137.94
2023-06-21T05:29:42.284Z,145.43
2023-06-21T05:30:42.135Z,156.47
2023-06-21T05:31:41.196Z,167.98
2023-06-21T05:32:44.868Z,160.10
2023-06-21T05:33:41.299Z,160.21
2023-06-21T05:34:41.321Z,151.55
2023-06-21T05:35:41.344Z,147.91
2023-06-21T05:36:41.399Z,146.81
2023-06-21T05:37:41.433Z,159.66
2023-06-21T05:38:41.460Z,165.11
2023-06-21T05:39:41.460Z,167.62
2023-06-21T05:40:41.495Z,163.83
2023-06-21T05:41:41.527Z,162.60
2023-06-21T05:42:42.539Z,163.22
2023-06-21T05:43:41.587Z,158.61
2023-06-21T05:44:41.672Z,154.55
2023-06-21T05:45:42.596Z,152.26
2023-06-21T05:46:41.581Z,148.78
2023-06-21T05:47:41.552Z,141.71
2023-06-21T05:48:41.492Z,143.38
2023-06-21T05:49:41.454Z,139.41
2023-06-21T05:50:41.425Z,136.55
2023-06-21T05:51:41.405Z,134.54
2023-06-21T05:52:41.383Z,128.16
2023-06-21T05:53:41.314Z,122.80
2023-06-21T05:54:41.268Z,119.40
2023-06-21T05:55:41.252Z,113.88
2023-06-21T05:56:41.206Z,114.93
2023-06-21T05:57:41.306Z,110.49
2023-06-21T05:58:41.255Z,104.81
2023-06-21T05:59:41.250Z,99.67
2023-06-21T06:00:41.293Z,91.86
2023-06-21T06:01:43.037Z,89.39
2023-06-21T06:02:41.325Z,90.73
2023-06-21T06:03:41.377Z,96.13
2023-06-21T06:04:41.333Z,85.53
2023-06-21T06:05:41.353Z,82.68
2023-06-21T06:06:41.383Z,91.66
2023-06-21T06:07:41.357Z,96.29
2023-06-21T06:08:41.306Z,92.89
2023-06-21T06:09:42.185Z,77.05
2023-06-21T06:10:41.297Z,83.23
2023-06-21T06:11:41.304Z,72.44
2023-06-21T06:12:41.329Z,73.17
2023-06-21T06:13:41.306Z,89.78
2023-06-21T06:14:41.301Z,87.77
2023-06-21T06:15:41.246Z,87.96
2023-06-21T06:16:41.243Z,72.55
2023-06-21T06:17:41.271Z,85.02
2023-06-21T06:18:41.217Z,88.30
2023-06-21T06:19:41.185Z,88.63
2023-06-21T06:20:41.112Z,89.74
2023-06-21T06:21:41.072Z,90.26
2023-06-21T06:22:41.075Z,79.34
2023-06-21T06:23:41.015Z,91.61
2023-06-21T06:24:40.951Z,88.41
2023-06-21T06:25:40.977Z,89.35
2023-06-21T06:26:40.867Z,92.76
2023-06-21T06:27:41.028Z,88.80
2023-06-21T06:28:40.805Z,88.95
2023-06-21T06:29:40.929Z,89.87
2023-06-21T06:30:40.702Z,87.47
2023-06-21T06:31:40.719Z,84.12
2023-06-21T06:32:40.713Z,90.56
2023-06-21T06:33:40.584Z,93.43
2023-06-21T06:34:40.556Z,88.60
2023-06-21T06:35:40.552Z,94.95
2023-06-21T06:36:40.451Z,89.39
2023-06-21T06:37:40.423Z,69.67
2023-06-21T06:38:40.353Z,81.77
2023-06-21T06:39:40.360Z,83.30
2023-06-21T06:40:40.341Z,80.12
2023-06-21T06:41:40.228Z,65.61
2023-06-21T06:42:40.250Z,66.60
2023-06-21T06:43:40.123Z,71.08
2023-06-21T06:44:40.082Z,77.72
2023-06-21T06:45:40.049Z,77.94
2023-06-21T06:46:40.016Z,72.42
2023-06-21T06:47:40.026Z,0.00
2023-06-21T06:48:41.148Z,0.00
2023-06-21T06:49:39.925Z,13.39
2023-06-21T06:50:39.890Z,14.10
2023-06-21T06:51:39.830Z,16.66
2023-06-21T06:52:39.758Z,10.95
2023-06-21T06:53:40.633Z,1.31
2023-06-21T06:54:39.717Z,8.57
2023-06-21T06:55:39.834Z,11.68
2023-06-21T06:56:40.606Z,14.23
2023-06-21T06:57:46.319Z,14.89
2023-06-21T06:58:40.482Z,13.82
2023-06-21T06:59:39.488Z,17.12
2023-06-21T07:00:39.365Z,19.24
2023-06-21T07:01:39.620Z,27.56
2023-06-21T07:02:39.431Z,44.65
2023-06-21T07:03:39.271Z,59.89
2023-06-21T07:04:41.613Z,66.78
2023-06-21T07:05:39.667Z,62.32
2023-06-21T07:06:39.068Z,58.39
2023-06-21T07:07:39.002Z,60.33
2023-06-21T07:08:38.994Z,48.05
2023-06-21T07:09:38.865Z,56.75
2023-06-21T07:10:38.896Z,56.94
2023-06-21T07:11:38.799Z,53.88
2023-06-21T07:12:38.858Z,54.25
2023-06-21T07:13:38.672Z,52.85
2023-06-21T07:14:38.621Z,60.68
2023-06-21T07:15:38.581Z,62.71
2023-06-21T07:16:41.161Z,57.27
2023-06-21T07:17:38.482Z,60.78
2023-06-21T07:18:40.391Z,66.66
2023-06-21T07:19:38.301Z,58.20
2023-06-21T07:20:38.314Z,63.73
2023-06-21T07:21:38.195Z,66.34
2023-06-21T07:22:38.230Z,70.40
2023-06-21T07:23:38.783Z,76.25
2023-06-21T07:24:38.055Z,91.55
2023-06-21T07:25:37.973Z,90.57
2023-06-21T07:26:37.911Z,89.03
2023-06-21T07:27:37.885Z,91.88
2023-06-21T07:28:37.891Z,82.88
2023-06-21T07:29:37.731Z,95.54
2023-06-21T07:30:37.696Z,99.13
2023-06-21T07:31:37.637Z,81.48
2023-06-21T07:32:37.561Z,81.57
2023-06-21T07:33:37.529Z,83.22
2023-06-21T07:34:37.518Z,84.95
2023-06-21T07:35:37.369Z,90.45
2023-06-21T07:36:39.156Z,81.72
2023-06-21T07:37:37.235Z,78.67
2023-06-21T07:38:37.279Z,61.07
2023-06-21T07:40:37.432Z,52.93
2023-06-21T07:41:37.724Z,55.60
2023-06-21T07:42:39.673Z,53.77
2023-06-21T07:43:36.870Z,55.68
2023-06-21T07:44:36.829Z,52.37
2023-06-21T07:45:37.690Z,45.44
2023-06-21T07:46:36.751Z,19.29
2023-06-21T07:47:37.005Z,17.60
2023-06-21T07:48:36.595Z,24.73
2023-06-21T07:49:36.525Z,27.70
2023-06-21T07:50:36.503Z,24.53
2023-06-21T07:51:36.411Z,25.00
2023-06-21T07:52:36.380Z,20.49
2023-06-21T07:53:36.265Z,39.27
2023-06-21T07:54:36.205Z,40.89
2023-06-21T07:55:36.126Z,60.70
2023-06-21T07:56:36.069Z,70.42
2023-06-21T07:57:36.025Z,90.66
2023-06-21T07:58:36.701Z,69.25
2023-06-21T07:59:35.892Z,57.71
2023-06-21T08:00:35.922Z,47.37
2023-06-21T08:01:37.876Z,43.61
2023-06-21T08:02:35.819Z,46.94
2023-06-21T08:03:35.796Z,45.52
2023-06-21T08:04:35.793Z,54.41
2023-06-21T08:05:35.652Z,65.97
2023-06-21T08:06:35.609Z,62.92
2023-06-21T08:07:35.556Z,63.54
2023-06-21T08:08:35.634Z,65.86
2023-06-21T08:09:35.401Z,69.10
2023-06-21T08:10:35.335Z,74.55
2023-06-21T08:11:35.268Z,82.63
2023-06-21T08:12:37.920Z,72.60
2023-06-21T08:13:35.705Z,88.05
2023-06-21T08:14:35.720Z,74.89
2023-06-21T08:15:35.004Z,61.83
2023-06-21T08:16:35.074Z,75.84
2023-06-21T08:17:35.007Z,61.64
2023-06-21T08:18:34.925Z,48.35
2023-06-21T08:19:34.728Z,35.01
2023-06-21T08:20:34.932Z,30.10
2023-06-21T08:21:34.588Z,25.00
2023-06-21T08:22:34.519Z,25.00
2023-06-21T08:23:34.515Z,34.84
2023-06-21T08:24:34.420Z,50.17
2023-06-21T08:25:34.331Z,39.33
2023-06-21T08:26:34.305Z,60.28
2023-06-21T08:27:34.185Z,68.18
2023-06-21T08:28:34.141Z,58.53
2023-06-21T08:29:34.060Z,61.18
2023-06-21T08:30:33.954Z,59.15
2023-06-21T08:31:33.945Z,51.15
2023-06-21T08:32:33.886Z,59.08
2023-06-21T08:33:33.783Z,56.53
2023-06-21T08:34:33.696Z,25.00
2023-06-21T08:35:33.613Z,31.16
2023-06-21T08:36:33.593Z,49.78
2023-06-21T08:37:33.481Z,20.09
2023-06-21T08:38:33.694Z,40.31
2023-06-21T08:39:33.348Z,36.05
2023-06-21T08:40:33.315Z,24.64
2023-06-21T08:41:33.218Z,25.55
2023-06-21T08:42:33.164Z,28.91
2023-06-21T08:43:33.100Z,32.50
2023-06-21T08:44:32.991Z,35.06
2023-06-21T08:45:32.933Z,45.63
2023-06-21T08:46:33.026Z,48.21
2023-06-21T08:47:32.841Z,40.46
2023-06-21T08:48:32.805Z,40.71
2023-06-21T08:49:32.635Z,0.00
2023-06-21T08:50:32.562Z,13.31
2023-06-21T08:51:33.865Z,25.00
2023-06-21T08:52:32.427Z,25.00
2023-06-21T08:53:32.400Z,24.03
2023-06-21T08:54:32.310Z,4.59
2023-06-21T08:55:32.309Z,0.00
2023-06-21T08:56:32.203Z,11.44
2023-06-21T08:57:32.153Z,26.44
2023-06-21T08:58:32.109Z,44.86
2023-06-21T08:59:32.031Z,54.45
2023-06-21T09:00:32.057Z,94.63
2023-06-21T09:01:31.994Z,123.85
2023-06-21T09:02:31.960Z,140.47
2023-06-21T09:03:32.038Z,138.48
2023-06-21T09:04:31.976Z,138.49
2023-06-21T09:05:31.759Z,163.94
2023-06-21T09:06:31.651Z,176.55
2023-06-21T09:07:31.788Z,173.17
2023-06-21T09:08:31.604Z,191.32
2023-06-21T09:09:31.508Z,225.80
2023-06-21T09:10:31.505Z,224.51
2023-06-21T09:11:31.537Z,242.44
2023-06-21T09:12:31.341Z,242.88
2023-06-21T09:13:31.305Z,250.26
2023-06-21T09:14:31.191Z,270.94
2023-06-21T09:15:31.224Z,277.03
2023-06-21T09:16:31.078Z,284.24
2023-06-21T09:17:31.129Z,247.37
2023-06-21T09:18:30.973Z,256.86
2023-06-21T09:19:31.018Z,259.71
2023-06-21T09:20:31.118Z,252.69
2023-06-21T09:21:30.723Z,249.69
2023-06-21T09:22:30.678Z,244.05
2023-06-21T09:23:30.659Z,218.16
2023-06-21T09:24:30.579Z,232.20
2023-06-21T09:25:30.575Z,237.27
2023-06-21T09:26:30.554Z,250.93
2023-06-21T09:27:30.544Z,256.00
2023-06-21T09:28:30.500Z,234.37
2023-06-21T09:29:30.631Z,210.73
2023-06-21T09:30:38.050Z,193.20
2023-06-21T09:31:31.574Z,193.80
2023-06-21T09:32:30.444Z,199.31
2023-06-21T09:33:30.416Z,210.10
2023-06-21T09:34:30.182Z,226.06
2023-06-21T09:35:30.108Z,195.52
2023-06-21T09:36:30.082Z,200.70
2023-06-21T09:37:29.992Z,214.74
2023-06-21T09:38:29.996Z,241.94
2023-06-21T09:39:29.937Z,283.06
2023-06-21T09:40:32.726Z,253.01
2023-06-21T09:41:29.699Z,250.00
2023-06-21T09:42:29.636Z,244.37
2023-06-21T09:43:29.568Z,248.83
2023-06-21T09:44:29.460Z,236.83
2023-06-21T09:45:29.391Z,225.43
2023-06-21T09:46:29.425Z,226.31
2023-06-21T09:47:29.329Z,237.55
2023-06-21T09:48:29.266Z,217.94
2023-06-21T09:49:29.116Z,223.24
2023-06-21T09:50:29.027Z,214.31
2023-06-21T09:51:28.955Z,206.10
2023-06-21T09:52:28.862Z,198.70
2023-06-21T09:53:29.104Z,212.20
2023-06-21T09:54:28.716Z,205.27
2023-06-21T09:55:28.616Z,217.10
2023-06-21T09:56:28.590Z,240.26
2023-06-21T09:57:28.627Z,252.99
2023-06-21T09:58:28.438Z,251.36
2023-06-21T09:59:28.300Z,250.73
2023-06-21T10:00:28.433Z,249.49
2023-06-21T10:01:28.186Z,230.54
2023-06-21T10:02:28.162Z,222.47
2023-06-21T10:03:28.134Z,228.78
2023-06-21T10:04:27.973Z,233.96
2023-06-21T10:05:27.836Z,235.38
2023-06-21T10:06:27.747Z,240.59
2023-06-21T10:07:27.741Z,217.93
2023-06-21T10:08:27.629Z,204.60
2023-06-21T10:09:27.530Z,213.24
2023-06-21T10:10:28.517Z,195.57
2023-06-21T10:11:27.415Z,208.78
2023-06-21T10:12:28.305Z,216.17
2023-06-21T10:13:27.273Z,192.85
2023-06-21T10:14:27.186Z,197.09
2023-06-21T10:15:27.087Z,208.83
2023-06-21T10:16:27.073Z,190.29
2023-06-21T10:17:27.201Z,173.91
2023-06-21T10:18:27.133Z,180.15
2023-06-21T10:19:27.137Z,164.56
2023-06-21T10:20:27.310Z,162.19
2023-06-21T10:21:26.902Z,148.98
2023-06-21T10:22:27.123Z,137.62
2023-06-21T10:23:26.932Z,153.03
2023-06-21T10:24:26.968Z,155.21
2023-06-21T10:25:26.855Z,145.08
2023-06-21T10:26:26.846Z,145.14
2023-06-21T10:27:26.925Z,155.28
2023-06-21T10:28:26.965Z,175.22
2023-06-21T10:29:26.836Z,152.59
2023-06-21T10:30:26.966Z,143.07
2023-06-21T10:31:26.988Z,135.11
2023-06-21T10:32:26.930Z,141.82
2023-06-21T10:33:27.790Z,164.39
2023-06-21T10:34:26.797Z,177.51
2023-06-21T10:35:26.767Z,189.08
2023-06-21T10:36:26.785Z,175.55
2023-06-21T10:37:26.853Z,150.46
2023-06-21T10:38:26.750Z,136.41
2023-06-21T10:39:26.878Z,125.90
2023-06-21T10:40:26.947Z,110.61
2023-06-21T10:41:26.779Z,124.16
2023-06-21T10:42:26.727Z,135.25
2023-06-21T10:43:26.757Z,145.25
2023-06-21T10:44:26.825Z,144.74
2023-06-21T10:45:26.685Z,131.16
2023-06-21T10:46:26.982Z,126.08
2023-06-21T10:47:26.812Z,138.87
2023-06-21T10:48:26.752Z,144.32
2023-06-21T10:49:26.660Z,155.16
2023-06-21T10:50:26.907Z,163.75
2023-06-21T10:51:26.697Z,142.67
2023-06-21T10:52:26.664Z,116.55
2023-06-21T10:53:27.332Z,105.48
2023-06-21T10:54:26.656Z,95.86
2023-06-21T10:55:26.636Z,90.92
2023-06-21T10:56:26.641Z,79.55
2023-06-21T10:57:26.600Z,74.19
2023-06-21T10:58:26.620Z,62.82
2023-06-21T10:59:26.587Z,61.82
2023-06-21T11:00:26.872Z,59.18
2023-06-21T11:01:26.568Z,64.07
2023-06-21T11:02:26.577Z,66.62
2023-06-21T11:03:26.510Z,74.50
2023-06-21T11:04:26.585Z,93.24
2023-06-21T11:05:26.603Z,106.71
2023-06-21T11:06:26.521Z,113.52
2023-06-21T11:07:26.488Z,104.59
2023-06-21T11:08:26.452Z,102.64
2023-06-21T11:09:26.541Z,96.05
2023-06-21T11:10:26.650Z,88.48
2023-06-21T11:11:26.399Z,72.91
2023-06-21T11:12:26.570Z,68.81
2023-06-21T11:13:26.463Z,72.67
2023-06-21T11:14:26.360Z,79.13
2023-06-21T11:15:26.379Z,85.14
2023-06-21T11:16:26.393Z,100.20
2023-06-21T11:17:26.388Z,100.49
2023-06-21T11:18:26.332Z,94.14
2023-06-21T11:19:26.301Z,80.92
2023-06-21T11:20:27.740Z,76.22
2023-06-21T11:21:26.301Z,75.40
2023-06-21T11:22:26.364Z,74.90
2023-06-21T11:23:27.191Z,51.58
2023-06-21T11:24:26.805Z,47.91
2023-06-21T11:25:26.317Z,32.37
2023-06-21T11:26:26.277Z,35.34
2023-06-21T11:27:26.254Z,30.90
2023-06-21T11:28:26.214Z,35.31
2023-06-21T11:29:26.241Z,36.41
2023-06-21T11:30:26.514Z,28.54
2023-06-21T11:31:26.225Z,39.46
2023-06-21T11:32:26.219Z,44.97
2023-06-21T11:33:26.168Z,26.63
2023-06-21T11:34:26.125Z,25.30
2023-06-21T11:35:26.092Z,26.66
2023-06-21T11:36:26.803Z,25.68
2023-06-21T11:37:26.074Z,24.82
2023-06-21T11:38:26.057Z,25.00
2023-06-21T11:39:26.170Z,25.00
2023-06-21T11:40:26.295Z,25.15
2023-06-21T11:41:25.835Z,27.22
2023-06-21T11:42:25.826Z,30.96
2023-06-21T11:43:25.685Z,35.65
2023-06-21T11:44:25.601Z,39.01
2023-06-21T11:45:25.603Z,34.40
2023-06-21T11:46:25.434Z,26.01
2023-06-21T11:47:25.586Z,31.26
2023-06-21T11:48:25.415Z,33.29
2023-06-21T11:49:25.802Z,31.91
2023-06-21T11:50:25.522Z,27.69
2023-06-21T11:51:25.368Z,28.07
2023-06-21T11:52:25.345Z,32.96
2023-06-21T11:53:25.525Z,31.26
2023-06-21T11:54:25.313Z,26.59
2023-06-21T11:55:25.293Z,26.11
2023-06-21T11:56:25.307Z,27.75
2023-06-21T11:57:25.250Z,26.16
2023-06-21T11:58:25.290Z,29.52
2023-06-21T11:59:25.248Z,29.82
2023-06-21T12:00:25.309Z,26.56
2023-06-21T12:01:25.241Z,33.23
2023-06-21T12:02:25.308Z,40.15
2023-06-21T12:03:25.349Z,41.03
2023-06-21T12:04:25.233Z,38.46
2023-06-21T12:05:25.249Z,37.87
2023-06-21T12:06:25.185Z,41.50
2023-06-21T12:07:25.837Z,32.66
2023-06-21T12:08:25.173Z,38.86
2023-06-21T12:09:25.146Z,43.51
2023-06-21T12:10:25.049Z,43.81
2023-06-21T12:11:24.951Z,45.14
2023-06-21T12:12:24.892Z,47.23
2023-06-21T12:13:24.799Z,52.95
2023-06-21T12:14:24.734Z,63.94
2023-06-21T12:15:24.693Z,70.24
2023-06-21T12:16:24.684Z,73.57
2023-06-21T12:17:24.679Z,81.13
2023-06-21T12:18:24.507Z,98.46
2023-06-21T12:19:24.450Z,113.24
2023-06-21T12:20:24.434Z,123.95
2023-06-21T12:21:24.374Z,134.25
2023-06-21T12:22:24.337Z,147.52
2023-06-21T12:23:24.329Z,156.27
2023-06-21T12:24:24.304Z,163.71
2023-06-21T12:25:24.259Z,171.78
2023-06-21T12:26:24.204Z,180.34
2023-06-21T12:27:24.242Z,185.81
2023-06-21T12:28:24.074Z,192.16
2023-06-21T12:29:24.046Z,196.35
2023-06-21T12:30:24.040Z,200.92
2023-06-21T12:31:24.305Z,203.45
2023-06-21T12:32:23.995Z,208.56
2023-06-21T12:33:23.850Z,215.53
2023-06-21T12:34:23.741Z,215.72
2023-06-21T12:35:23.679Z,217.57
2023-06-21T12:36:23.596Z,222.20
2023-06-21T12:37:23.646Z,231.39
2023-06-21T12:38:23.476Z,239.95
2023-06-21T12:39:23.378Z,245.28
2023-06-21T12:40:23.308Z,250.27
2023-06-21T12:41:23.239Z,249.60
2023-06-21T12:42:23.200Z,250.00
2023-06-21T12:43:23.114Z,250.29